Friday, October 31, 2014, 3:48 PM EDT

KFDK, Frederick, Frederick Municipal Airport

Location: Frederick, MD, United States Lat: 39.417
Local Time: 3:48 PM EDT (19:48 GMT) Lon: -77.374
Time Zone: US/Eastern Elev: 301 ft

Show me the last for .
Show Decoded

2014-10-31 13:45 METAR KFDK 311745Z 00000KT 10SM SCT037 OVC060 15/02 A2994 =
2014-10-31 12:50 METAR KFDK 311650Z 11003KT 10SM SCT037 OVC060 14/02 A2997 =
2014-10-31 11:45 METAR KFDK 311545Z 00000KT 10SM OVC060 A3001 =
2014-10-31 10:46 METAR KFDK 311446Z VRB04KT 10SM OVC060 12/04 A3002 =
2014-10-31 09:45 METAR KFDK 311345Z 00000KT 10SM OVC060 11/16 A3003 =
2014-10-31 08:49 METAR KFDK 311249Z 00000KT 10SM OVC060 09/06 A3003 RMK RY12/30 CLSD/1900 =
2014-10-31 07:45 METAR KFDK 311145Z 00000KT 10SM OVC060 09/06 A3003 RMK RY 12/30 CLSD /1900Z =
2014-10-31 06:45 METAR KFDK 311045Z 00000KT 10SM OVC060 09/06 A3003 =
2014-10-31 06:30 METAR KFDK 311030Z AUTO 00000KT 10SM OVC060 09/06 A3003 RMK AO2 =
2014-10-31 06:15 METAR KFDK 311015Z AUTO 00000KT 10SM OVC060 09/06 A3003 RMK AO2 LTG DSNT E =
2014-10-31 05:55 METAR KFDK 310955Z AUTO 00000KT 10SM OVC060 09/06 A3004 =
2014-10-31 05:35 METAR KFDK 310935Z AUTO 04003KT 10SM OVC060 08/06 A3004 RMK AO2 =
2014-10-31 05:15 METAR KFDK 310915Z AUTO 36003KT 10SM OVC060 09/06 A3003 RMK AO2 =
2014-10-31 04:55 METAR KFDK 310855Z AUTO 00000KT 10SM OVC060 09/06 A3003 =
2014-10-31 04:35 METAR KFDK 310835Z AUTO 00000KT 10SM OVC050 09/07 A3003 RMK AO2 =
2014-10-31 04:15 METAR KFDK 310815Z AUTO 00000KT 10SM OVC050 09/06 A3004 RMK AO2 =
2014-10-31 03:55 METAR KFDK 310755Z AUTO 00000KT 10SM OVC050 09/06 A3004 =
2014-10-31 03:35 METAR KFDK 310735Z AUTO 00000KT 10SM OVC050 09/06 A3004 RMK AO2 =
2014-10-31 03:15 METAR KFDK 310715Z AUTO 00000KT 10SM OVC050 09/06 A3005 RMK AO2 =
2014-10-31 02:55 METAR KFDK 310655Z AUTO 00000KT 10SM OVC050 09/06 A3005 RMK AO2 =
2014-10-31 02:35 METAR KFDK 310635Z AUTO 00000KT 10SM OVC050 09/06 A3005 RMK AO2 =
2014-10-31 02:15 METAR KFDK 310615Z AUTO 00000KT 10SM OVC050 09/06 A3005 RMK AO2 =
2014-10-31 01:55 METAR KFDK 310555Z AUTO 00000KT 10SM OVC050 09/06 A3005 RMK AO2 =
2014-10-31 01:35 METAR KFDK 310535Z AUTO 00000KT 10SM OVC050 08/06 A3006 RMK AO2 =
2014-10-31 01:15 METAR KFDK 310515Z AUTO 00000KT 10SM OVC050 08/05 A3006 RMK AO2 =
2014-10-31 00:55 METAR KFDK 310455Z AUTO 00000KT 10SM OVC050 08/05 A3006 RMK AO2 =
2014-10-31 00:35 METAR KFDK 310435Z AUTO 00000KT 10SM OVC050 08/05 A3006 RMK AO2 =
2014-10-31 00:15 METAR KFDK 310415Z AUTO 00000KT 10SM OVC050 08/05 A3006 RMK AO2 =
2014-10-30 23:55 METAR KFDK 310355Z AUTO 00000KT 10SM OVC050 10/06 A3007 =
2014-10-30 23:35 METAR KFDK 310335Z AUTO 00000KT 10SM OVC050 10/05 A3007 RMK AO2 =
2014-10-30 23:15 METAR KFDK 310315Z AUTO 00000KT 10SM OVC050 10/05 A3007 RMK AO2 =
2014-10-30 22:55 METAR KFDK 310255Z AUTO 00000KT 10SM OVC050 10/06 A3007 RMK AO2 =
2014-10-30 22:35 METAR KFDK 310235Z AUTO 00000KT 10SM OVC050 10/05 A3008 RMK AO2 =
2014-10-30 22:15 METAR KFDK 310215Z AUTO 00000KT 10SM OVC050 10/05 A3008 RMK AO2 =
2014-10-30 21:55 METAR KFDK 310155Z AUTO 00000KT 10SM OVC050 10/05 A3008 RMK AO2 =
2014-10-30 21:35 METAR KFDK 310135Z AUTO 00000KT 10SM OVC050 09/05 A3008 RMK AO2 =
2014-10-30 21:15 METAR KFDK 310115Z AUTO 00000KT 10SM OVC050 08/05 A3008 RMK AO2 =
2014-10-30 20:50 METAR KFDK 310050Z AUTO 00000KT 10SM BKN055 07/04 A3008 RMK AO2 =
2014-10-30 19:45 METAR KFDK 302345Z 00000KT 10SM SCT050 11/04 A3008 =
2014-10-30 18:45 METAR KFDK 302245Z 33004KT 10SM OVC055 13/03 A3007 =
2014-10-30 17:50 METAR KFDK 302150Z 33006KT 10SM OVC055 14/02 A3007 =
2014-10-30 16:55 METAR KFDK 302055Z 35005KT 10SM OVC055 15/02 A3006 =
2014-10-30 15:49 METAR KFDK 301949Z 33006KT 10SM OVC047 15/03 A3006 =

Support USWX by starting your Amazon purchase here.